createdAt,value
2023-02-11T00:01:28.305Z,42.25
2023-02-11T00:03:56.744Z,41.10
2023-02-11T00:06:27.974Z,44.05
2023-02-11T00:08:56.007Z,43.03
2023-02-11T00:11:25.553Z,44.50
2023-02-11T00:13:53.857Z,43.30
2023-02-11T00:16:22.218Z,42.67
2023-02-11T00:18:53.011Z,41.22
2023-02-11T00:21:23.776Z,40.60
2023-02-11T00:23:53.429Z,41.58
2023-02-11T00:26:24.193Z,40.67
2023-02-11T00:28:52.781Z,40.90
2023-02-11T00:31:22.597Z,42.38
2023-02-11T00:33:50.662Z,41.38
2023-02-11T00:36:22.595Z,45.15
2023-02-11T00:38:52.993Z,40.45
2023-02-11T00:41:21.890Z,45.58
2023-02-11T00:43:50.206Z,38.60
2023-02-11T00:46:18.015Z,38.92
2023-02-11T00:48:48.292Z,41.20
2023-02-11T00:51:16.158Z,39.13
2023-02-11T00:53:43.898Z,38.78
2023-02-11T00:56:15.169Z,36.55
2023-02-11T00:58:42.824Z,37.65
2023-02-11T01:01:10.932Z,43.13
2023-02-11T01:03:38.692Z,36.75
2023-02-11T01:06:07.248Z,37.35
2023-02-11T01:08:34.979Z,36.80
2023-02-11T01:11:05.329Z,38.95
2023-02-11T01:13:37.100Z,39.53
2023-02-11T01:16:08.376Z,32.17
2023-02-11T01:18:36.217Z,38.90
2023-02-11T01:21:04.341Z,38.58
2023-02-11T01:23:32.052Z,35.47
2023-02-11T01:25:59.776Z,36.65
2023-02-11T01:28:30.056Z,34.05
2023-02-11T01:30:59.188Z,36.03
2023-02-11T01:33:26.891Z,37.40
2023-02-11T01:35:54.816Z,38.60
2023-02-11T01:38:24.826Z,33.60
2023-02-11T01:40:55.340Z,32.33
2023-02-11T01:43:23.735Z,33.67
2023-02-11T01:46:01.569Z,31.63
2023-02-11T01:48:33.512Z,34.13
2023-02-11T01:51:07.368Z,28.65
2023-02-11T01:53:53.795Z,30.80
2023-02-11T01:56:39.872Z,35.47
2023-02-11T01:59:13.518Z,35.35
2023-02-11T02:01:49.507Z,31.92
2023-02-11T02:04:19.719Z,32.65
2023-02-11T02:06:55.665Z,33.25
2023-02-11T02:09:27.774Z,31.67
2023-02-11T02:11:55.566Z,32.13
2023-02-11T02:14:23.300Z,31.48
2023-02-11T02:16:52.471Z,30.23
2023-02-11T02:19:50.968Z,32.30
2023-02-11T02:22:54.517Z,31.77
2023-02-11T02:25:49.205Z,31.45
2023-02-11T02:28:44.700Z,32.13
2023-02-11T02:31:38.464Z,34.38
2023-02-11T02:34:15.210Z,28.52
2023-02-11T02:36:49.894Z,28.15
2023-02-11T02:39:22.891Z,30.42
2023-02-11T02:41:53.829Z,31.83
2023-02-11T02:44:22.270Z,31.35
2023-02-11T02:46:50.027Z,32.72
2023-02-11T02:49:19.203Z,28.42
2023-02-11T02:52:01.642Z,25.65
2023-02-11T02:54:58.656Z,28.88
2023-02-11T02:57:33.500Z,32.60
2023-02-11T03:00:12.735Z,31.42
2023-02-11T03:02:47.945Z,29.30
2023-02-11T03:05:22.667Z,31.88
2023-02-11T03:07:55.390Z,28.80
2023-02-11T03:10:28.005Z,28.92
2023-02-11T03:12:58.045Z,30.67
2023-02-11T03:15:29.241Z,27.77
2023-02-11T03:18:01.703Z,26.13
2023-02-11T03:23:07.386Z,25.52
2023-02-11T03:25:42.269Z,33.42
2023-02-11T03:28:15.262Z,27.27
2023-02-11T03:30:48.115Z,30.45
2023-02-11T03:33:20.980Z,27.10
2023-02-11T03:35:55.191Z,29.25
2023-02-11T03:38:27.035Z,30.23
2023-02-11T03:40:57.072Z,25.70
2023-02-11T03:43:29.762Z,26.48
2023-02-11T03:45:58.201Z,24.95
2023-02-11T03:48:31.114Z,27.65
2023-02-11T03:51:03.020Z,28.15
2023-02-11T03:53:30.808Z,26.02
2023-02-11T03:56:03.728Z,27.92
2023-02-11T03:58:31.917Z,26.27
2023-02-11T04:00:59.662Z,26.02
2023-02-11T04:03:29.552Z,27.15
2023-02-11T04:05:57.291Z,27.45
2023-02-11T04:08:26.402Z,30.73
2023-02-11T04:10:54.098Z,25.13
2023-02-11T04:13:21.801Z,30.45
2023-02-11T04:15:50.078Z,28.23
2023-02-11T04:18:18.118Z,29.92
2023-02-11T04:20:45.862Z,26.55
2023-02-11T04:23:13.973Z,28.10
2023-02-11T04:25:43.612Z,31.20
2023-02-11T04:28:11.429Z,26.70
2023-02-11T04:30:39.218Z,28.70
2023-02-11T04:33:07.048Z,28.30
2023-02-11T04:35:34.792Z,29.67
2023-02-11T04:38:02.476Z,29.02
2023-02-11T04:40:30.144Z,30.00
2023-02-11T04:42:59.343Z,29.65
2023-02-11T04:45:27.095Z,27.85
2023-02-11T04:47:54.785Z,28.58
2023-02-11T04:50:22.500Z,28.08
2023-02-11T04:52:50.120Z,28.40
2023-02-11T04:55:17.976Z,27.98
2023-02-11T04:57:45.687Z,27.60
2023-02-11T05:00:16.254Z,30.30
2023-02-11T05:02:43.906Z,29.00
2023-02-11T05:05:14.025Z,29.58
2023-02-11T05:07:41.715Z,30.92
2023-02-11T05:10:09.882Z,30.92
2023-02-11T05:12:37.546Z,26.55
2023-02-11T05:15:05.877Z,33.30
2023-02-11T05:17:34.916Z,35.95
2023-02-11T05:20:05.950Z,32.88
2023-02-11T05:22:33.665Z,27.05
2023-02-11T05:25:01.436Z,35.50
2023-02-11T05:27:29.123Z,30.02
2023-02-11T05:29:56.773Z,31.88
2023-02-11T05:32:40.067Z,36.40
2023-02-11T05:35:07.956Z,37.58
2023-02-11T05:37:35.699Z,33.80
2023-02-11T05:40:03.414Z,33.08
2023-02-11T05:42:31.048Z,37.03
2023-02-11T05:44:58.862Z,37.63
2023-02-11T05:47:26.578Z,42.38
2023-02-11T05:49:56.260Z,34.03
2023-02-11T05:52:24.227Z,41.05
2023-02-11T05:54:52.215Z,40.42
2023-02-11T05:57:20.386Z,42.85
2023-02-11T05:59:48.047Z,42.83
2023-02-11T06:02:16.728Z,39.03
2023-02-11T06:04:44.589Z,43.55
2023-02-11T06:07:13.635Z,42.95
2023-02-11T06:09:41.419Z,40.20
2023-02-11T06:12:09.117Z,39.58
2023-02-11T06:14:36.788Z,42.42
2023-02-11T06:17:05.071Z,48.85
2023-02-11T06:19:32.716Z,49.92
2023-02-11T06:22:00.405Z,44.85
2023-02-11T06:24:54.727Z,47.92
2023-02-11T06:27:17.901Z,48.92
2023-02-11T06:29:45.903Z,52.22
2023-02-11T06:32:36.969Z,48.75
2023-02-11T06:35:01.541Z,46.17
2023-02-11T06:37:29.275Z,51.75
2023-02-11T06:39:58.294Z,45.55
2023-02-11T06:42:25.929Z,45.72
2023-02-11T06:44:53.688Z,52.03
2023-02-11T06:47:21.396Z,42.67
2023-02-11T06:49:49.061Z,44.50
2023-02-11T06:52:16.691Z,50.75
2023-02-11T06:54:44.407Z,43.20
2023-02-11T06:57:13.438Z,51.88
2023-02-11T06:59:41.053Z,42.78
2023-02-11T07:02:10.404Z,48.30
2023-02-11T07:04:38.182Z,46.03
2023-02-11T07:07:05.878Z,44.22
2023-02-11T07:09:33.602Z,46.65
2023-02-11T07:12:01.310Z,46.47
2023-02-11T07:14:30.389Z,48.45
2023-02-11T07:16:58.166Z,45.17
2023-02-11T07:19:25.814Z,45.42
2023-02-11T07:21:53.485Z,50.63
2023-02-11T07:24:21.146Z,45.45
2023-02-11T07:26:48.768Z,49.97
2023-02-11T07:29:16.446Z,43.60
2023-02-11T07:31:47.389Z,45.63
2023-02-11T07:34:15.153Z,51.50
2023-02-11T07:36:43.659Z,40.88
2023-02-11T07:39:11.461Z,52.80
2023-02-11T07:41:39.650Z,49.97
2023-02-11T07:44:07.775Z,42.47
2023-02-11T07:46:35.828Z,50.47
2023-02-11T07:49:04.949Z,50.65
2023-02-11T07:51:32.881Z,45.30
2023-02-11T07:54:01.233Z,54.70
2023-02-11T07:56:29.870Z,45.13
2023-02-11T07:59:00.961Z,44.88
2023-02-11T08:01:29.251Z,47.83
2023-02-11T08:03:58.740Z,45.75
2023-02-11T08:06:30.262Z,45.90
2023-02-11T08:08:58.320Z,49.67
2023-02-11T08:11:27.778Z,41.63
2023-02-11T08:13:57.438Z,47.78
2023-02-11T08:16:27.307Z,55.78
2023-02-11T08:18:57.302Z,50.92
2023-02-11T08:21:27.130Z,46.85
2023-02-11T08:23:55.119Z,47.67
2023-02-11T08:26:24.674Z,47.70
2023-02-11T08:28:53.897Z,40.50
2023-02-11T08:31:23.905Z,50.92
2023-02-11T08:33:52.246Z,41.97
2023-02-11T08:36:23.166Z,44.80
2023-02-11T08:38:52.391Z,44.90
2023-02-11T08:41:20.121Z,47.00
2023-02-11T08:43:47.861Z,42.95
2023-02-11T08:46:18.429Z,48.90
2023-02-11T08:48:47.125Z,46.28
2023-02-11T08:51:17.300Z,50.17
2023-02-11T08:53:45.367Z,45.15
2023-02-11T08:56:17.271Z,47.08
2023-02-11T08:58:45.011Z,44.17
2023-02-11T09:01:13.761Z,50.05
2023-02-11T09:03:41.814Z,46.17
2023-02-11T09:06:11.316Z,50.60
2023-02-11T09:08:40.372Z,52.78
2023-02-11T09:11:08.974Z,51.72
2023-02-11T09:13:38.727Z,50.42
2023-02-11T09:16:07.184Z,55.92
2023-02-11T09:18:34.915Z,50.55
2023-02-11T09:21:07.585Z,46.15
2023-02-11T09:23:35.764Z,50.17
2023-02-11T09:26:09.204Z,52.70
2023-02-11T09:28:38.759Z,54.05
2023-02-11T09:31:07.586Z,57.63
2023-02-11T09:33:35.512Z,52.63
2023-02-11T09:36:03.483Z,55.45
2023-02-11T09:38:31.347Z,49.47
2023-02-11T09:40:59.673Z,53.55
2023-02-11T09:43:34.135Z,50.00
2023-02-11T09:46:03.830Z,51.97
2023-02-11T09:48:39.387Z,57.67
2023-02-11T09:51:14.038Z,54.13
2023-02-11T09:53:44.236Z,56.00
2023-02-11T09:56:14.683Z,53.88
2023-02-11T09:58:44.478Z,52.92
2023-02-11T10:01:21.824Z,53.67
2023-02-11T10:04:01.883Z,60.45
2023-02-11T10:06:40.789Z,54.85
2023-02-11T10:09:21.144Z,56.50
2023-02-11T10:11:59.936Z,58.58
2023-02-11T10:14:50.448Z,60.67
2023-02-11T10:17:29.705Z,60.05
2023-02-11T10:20:09.763Z,53.78
2023-02-11T10:22:42.420Z,56.60
2023-02-11T10:25:21.205Z,58.45
2023-02-11T10:27:49.743Z,55.28
2023-02-11T10:30:24.762Z,59.53
2023-02-11T10:32:58.779Z,51.97
2023-02-11T10:35:27.227Z,63.88
2023-02-11T10:37:56.031Z,53.33
2023-02-11T10:40:25.496Z,63.63
2023-02-11T10:42:56.175Z,58.70
2023-02-11T10:45:29.364Z,57.45
2023-02-11T10:47:59.504Z,56.50
2023-02-11T10:50:29.501Z,60.22
2023-02-11T10:53:14.280Z,61.63
2023-02-11T10:55:51.224Z,67.15
2023-02-11T10:58:27.003Z,61.47
2023-02-11T11:00:56.822Z,66.22
2023-02-11T11:03:28.732Z,60.30
2023-02-11T11:05:59.763Z,65.03
2023-02-11T11:08:40.640Z,64.00
2023-02-11T11:11:10.814Z,65.93
2023-02-11T11:13:40.616Z,64.80
2023-02-11T11:16:23.498Z,61.55
2023-02-11T11:18:54.668Z,70.22
2023-02-11T11:21:27.209Z,63.75
2023-02-11T11:26:26.392Z,65.07
2023-02-11T11:29:01.167Z,65.25
2023-02-11T11:31:32.895Z,62.42
2023-02-11T11:34:05.931Z,63.80
2023-02-11T11:36:37.714Z,62.83
2023-02-11T11:39:19.703Z,67.05
2023-02-11T11:41:52.815Z,67.53
2023-02-11T11:44:27.714Z,66.97
2023-02-11T11:47:24.301Z,66.68
2023-02-11T11:50:06.272Z,65.18
2023-02-11T11:52:45.438Z,66.18
2023-02-11T11:55:19.419Z,67.15
2023-02-11T11:57:47.416Z,63.38
2023-02-11T12:00:17.928Z,64.53
2023-02-11T12:03:20.797Z,65.75
2023-02-11T12:06:01.503Z,64.70
2023-02-11T12:08:43.753Z,70.28
2023-02-11T12:11:20.664Z,57.78
2023-02-11T12:14:05.250Z,60.47
2023-02-11T12:16:42.390Z,63.17
2023-02-11T12:19:42.900Z,60.97
2023-02-11T12:22:27.392Z,64.50
2023-02-11T12:25:10.650Z,66.10
2023-02-11T12:27:49.371Z,65.88
2023-02-11T12:30:41.892Z,65.75
2023-02-11T12:33:21.416Z,59.70
2023-02-11T12:35:59.669Z,66.07
2023-02-11T12:38:52.324Z,64.03
2023-02-11T12:41:58.731Z,64.35
2023-02-11T12:44:35.153Z,64.97
2023-02-11T12:47:13.873Z,66.55
2023-02-11T12:50:03.384Z,66.03
2023-02-11T12:52:46.153Z,65.65
2023-02-11T12:55:23.499Z,61.72
2023-02-11T12:57:54.092Z,58.42
2023-02-11T13:00:25.641Z,58.65
2023-02-11T13:02:59.824Z,58.67
2023-02-11T13:05:30.475Z,66.88
2023-02-11T13:08:05.952Z,60.47
2023-02-11T13:10:37.885Z,59.97
2023-02-11T13:13:17.598Z,60.72
2023-02-11T13:15:52.382Z,62.90
2023-02-11T13:18:35.977Z,62.00
2023-02-11T13:21:33.459Z,66.28
2023-02-11T13:24:09.232Z,61.70
2023-02-11T13:26:47.235Z,61.00
2023-02-11T13:29:23.598Z,58.25
2023-02-11T13:31:55.776Z,60.97
2023-02-11T13:34:28.328Z,67.55
2023-02-11T13:39:25.276Z,65.07
2023-02-11T13:42:04.003Z,60.08
2023-02-11T13:44:35.763Z,59.30
2023-02-11T13:47:06.374Z,57.38
2023-02-11T13:49:40.601Z,56.40
2023-02-11T13:52:23.476Z,58.50
2023-02-11T13:57:40.153Z,56.42
2023-02-11T14:01:06.302Z,58.38
2023-02-11T14:03:57.333Z,55.92
2023-02-11T14:07:01.238Z,58.50
2023-02-11T14:09:40.703Z,55.35
2023-02-11T14:12:24.223Z,58.90
2023-02-11T14:15:39.093Z,60.38
2023-02-11T14:18:59.458Z,61.55
2023-02-11T14:21:35.453Z,55.78
2023-02-11T14:24:46.499Z,50.80
2023-02-11T14:27:26.669Z,57.65
2023-02-11T14:30:14.982Z,52.45
2023-02-11T14:33:01.639Z,54.72
2023-02-11T14:35:45.092Z,55.95
2023-02-11T14:38:22.984Z,60.63
2023-02-11T14:40:56.863Z,51.63
2023-02-11T14:43:29.546Z,50.35
2023-02-11T14:45:59.726Z,52.70
2023-02-11T14:48:32.518Z,52.97
2023-02-11T14:51:03.178Z,48.72
2023-02-11T14:53:33.697Z,52.92
2023-02-11T14:56:01.685Z,48.00
2023-02-11T14:58:31.682Z,57.22
2023-02-11T15:01:02.017Z,57.10
2023-02-11T15:03:42.669Z,71.18
2023-02-11T15:06:19.385Z,61.75
2023-02-11T15:08:50.568Z,56.50
2023-02-11T15:11:21.222Z,55.60
2023-02-11T15:13:50.409Z,55.13
2023-02-11T15:16:22.215Z,57.97
2023-02-11T15:18:54.212Z,61.67
2023-02-11T15:21:24.724Z,57.17
2023-02-11T15:24:01.091Z,58.33
2023-02-11T15:26:29.469Z,54.42
2023-02-11T15:28:57.644Z,56.13
2023-02-11T15:31:28.324Z,52.60
2023-02-11T15:34:07.655Z,55.38
2023-02-11T15:36:37.083Z,51.33
2023-02-11T15:39:18.801Z,49.65
2023-02-11T15:41:48.541Z,53.35
2023-02-11T15:44:29.768Z,52.65
2023-02-11T15:46:57.757Z,52.42
2023-02-11T15:49:27.513Z,52.70
2023-02-11T15:51:58.452Z,50.92
2023-02-11T15:54:29.471Z,51.80
2023-02-11T15:57:03.967Z,52.22
2023-02-11T15:59:38.133Z,56.75
2023-02-11T16:02:17.127Z,57.22
2023-02-11T16:04:53.483Z,56.53
2023-02-11T16:07:43.178Z,52.00
2023-02-11T16:10:25.447Z,52.60
2023-02-11T16:12:55.733Z,55.83
2023-02-11T16:15:44.483Z,53.45
2023-02-11T16:18:39.387Z,59.67
2023-02-11T16:21:16.736Z,62.72
2023-02-11T16:23:51.849Z,59.60
2023-02-11T16:26:28.830Z,59.33
2023-02-11T16:29:07.938Z,59.45
2023-02-11T16:31:37.514Z,59.08
2023-02-11T16:34:13.075Z,57.13
2023-02-11T16:36:42.699Z,64.55
2023-02-11T16:39:11.427Z,57.17
2023-02-11T16:41:39.795Z,56.22
2023-02-11T16:44:08.288Z,53.15
2023-02-11T16:46:38.244Z,69.20
2023-02-11T16:49:11.693Z,69.40
2023-02-11T16:51:41.081Z,58.50
2023-02-11T16:54:14.261Z,59.65
2023-02-11T16:56:42.153Z,58.95
2023-02-11T16:59:10.733Z,63.03
2023-02-11T17:01:40.176Z,64.63
2023-02-11T17:04:11.728Z,64.55
2023-02-11T17:06:39.559Z,61.20
2023-02-11T17:09:08.569Z,63.83
2023-02-11T17:11:37.775Z,73.03
2023-02-11T17:14:05.543Z,74.05
2023-02-11T17:16:33.355Z,74.00
2023-02-11T17:19:04.231Z,64.28
2023-02-11T17:21:32.261Z,65.00
2023-02-11T17:24:00.578Z,64.07
2023-02-11T17:26:28.515Z,61.88
2023-02-11T17:28:57.804Z,67.30
2023-02-11T17:31:25.839Z,67.30
2023-02-11T17:33:53.666Z,63.83
2023-02-11T17:36:21.460Z,63.80
2023-02-11T17:38:49.193Z,67.43
2023-02-11T17:41:16.973Z,62.42
2023-02-11T17:43:44.963Z,78.97
2023-02-11T17:46:14.312Z,76.85
2023-02-11T17:48:42.221Z,71.45
2023-02-11T17:51:23.975Z,65.85
2023-02-11T17:53:51.802Z,63.43
2023-02-11T17:56:19.844Z,67.80
2023-02-11T17:58:50.296Z,68.13
2023-02-11T18:01:19.479Z,69.63
2023-02-11T18:03:50.162Z,75.40
2023-02-11T18:06:17.964Z,70.88
2023-02-11T18:08:45.709Z,78.47
2023-02-11T18:11:15.153Z,73.68
2023-02-11T18:13:43.377Z,76.80
2023-02-11T18:16:15.529Z,76.07
2023-02-11T18:18:53.958Z,72.00
2023-02-11T18:21:23.385Z,73.22
2023-02-11T18:23:51.557Z,78.47
2023-02-11T18:26:21.615Z,79.95
2023-02-11T18:28:49.478Z,74.72
2023-02-11T18:31:18.332Z,71.53
2023-02-11T18:33:47.910Z,78.75
2023-02-11T18:36:16.928Z,71.45
2023-02-11T18:38:49.906Z,70.85
2023-02-11T18:41:17.700Z,71.93
2023-02-11T18:43:45.634Z,73.60
2023-02-11T18:46:15.389Z,75.55
2023-02-11T18:48:44.777Z,70.45
2023-02-11T18:51:15.863Z,75.35
2023-02-11T18:53:44.436Z,79.45
2023-02-11T18:56:15.279Z,77.82
2023-02-11T18:58:43.479Z,82.60
2023-02-11T19:01:13.924Z,76.28
2023-02-11T19:03:41.803Z,83.60
2023-02-11T19:06:16.913Z,89.20
2023-02-11T19:08:44.693Z,91.68
2023-02-11T19:11:12.955Z,84.30
2023-02-11T19:13:40.703Z,81.72
2023-02-11T19:16:11.438Z,77.05
2023-02-11T19:18:39.654Z,76.50
2023-02-11T19:21:09.238Z,74.95
2023-02-11T19:23:39.379Z,75.53
2023-02-11T19:26:07.432Z,77.25
2023-02-11T19:28:37.195Z,76.38
2023-02-11T19:31:09.280Z,84.43
2023-02-11T19:33:37.781Z,85.43
2023-02-11T19:36:07.423Z,76.55
2023-02-11T19:38:35.820Z,84.18
2023-02-11T19:41:05.427Z,80.55
2023-02-11T19:43:33.340Z,85.35
2023-02-11T19:46:02.950Z,89.80
2023-02-11T19:48:31.129Z,93.18
2023-02-11T19:50:59.374Z,91.85
2023-02-11T19:53:27.731Z,89.30
2023-02-11T19:55:55.552Z,79.38
2023-02-11T19:58:24.718Z,85.93
2023-02-11T20:00:52.554Z,85.53
2023-02-11T20:03:20.291Z,83.90
2023-02-11T20:05:48.045Z,83.38
2023-02-11T20:08:17.122Z,85.68
2023-02-11T20:10:44.948Z,86.25
2023-02-11T20:13:12.684Z,77.18
2023-02-11T20:15:41.955Z,84.88
2023-02-11T20:18:09.700Z,84.80
2023-02-11T20:20:39.383Z,82.82
2023-02-11T20:23:07.144Z,83.75
2023-02-11T20:25:34.933Z,75.90
2023-02-11T20:28:03.678Z,87.90
2023-02-11T20:30:31.465Z,82.47
2023-02-11T20:33:00.599Z,80.13
2023-02-11T20:35:28.331Z,90.30
2023-02-11T20:37:56.161Z,77.57
2023-02-11T20:40:23.903Z,81.03
2023-02-11T20:42:52.417Z,81.30
2023-02-11T20:45:20.110Z,83.60
2023-02-11T20:47:47.846Z,82.35
2023-02-11T20:50:17.054Z,78.78
2023-02-11T20:52:44.847Z,86.80
2023-02-11T20:55:13.124Z,91.22
2023-02-11T20:57:40.847Z,85.50
2023-02-11T21:00:13.139Z,87.32
2023-02-11T21:02:42.569Z,88.20
2023-02-11T21:05:10.326Z,98.13
2023-02-11T21:07:39.497Z,82.85
2023-02-11T21:10:16.990Z,87.80
2023-02-11T21:12:44.711Z,86.50
2023-02-11T21:15:13.603Z,87.13
2023-02-11T21:17:41.419Z,80.47
2023-02-11T21:20:15.097Z,83.75
2023-02-11T21:22:44.131Z,76.78
2023-02-11T21:25:11.833Z,86.68
2023-02-11T21:27:39.739Z,87.75
2023-02-11T21:30:08.813Z,81.32
2023-02-11T21:32:36.584Z,82.47
2023-02-11T21:35:04.348Z,80.25
2023-02-11T21:37:32.254Z,88.07
2023-02-11T21:40:01.404Z,87.60
2023-02-11T21:42:29.155Z,78.55
2023-02-11T21:44:56.876Z,77.75
2023-02-11T21:47:24.591Z,84.55
2023-02-11T21:49:52.380Z,89.88
2023-02-11T21:52:20.126Z,85.47
2023-02-11T21:54:50.505Z,82.75
2023-02-11T21:57:19.827Z,79.18
2023-02-11T21:59:47.514Z,85.32
2023-02-11T22:02:15.217Z,76.88
2023-02-11T22:04:42.978Z,83.47
2023-02-11T22:07:10.769Z,81.88
2023-02-11T22:09:39.328Z,74.95
2023-02-11T22:12:08.669Z,83.03
2023-02-11T22:14:38.276Z,80.53
2023-02-11T22:17:08.488Z,75.90
2023-02-11T22:19:36.232Z,79.68
2023-02-11T22:22:04.069Z,74.20
2023-02-11T22:24:31.728Z,67.32
2023-02-11T22:26:59.421Z,72.03
2023-02-11T22:29:27.117Z,82.25
2023-02-11T22:31:56.262Z,76.85
2023-02-11T22:34:24.011Z,77.03
2023-02-11T22:36:51.723Z,71.97
2023-02-11T22:39:19.473Z,80.20
2023-02-11T22:41:49.952Z,73.55
2023-02-11T22:44:18.368Z,83.38
2023-02-11T22:46:46.060Z,74.85
2023-02-11T22:49:17.208Z,76.90
2023-02-11T22:51:44.995Z,75.18
2023-02-11T22:54:15.337Z,76.43
2023-02-11T22:56:43.404Z,77.57
2023-02-11T22:59:13.896Z,73.20
2023-02-11T23:01:42.384Z,75.05
2023-02-11T23:04:12.881Z,78.18
2023-02-11T23:06:42.021Z,72.78
2023-02-11T23:09:12.180Z,77.68
2023-02-11T23:11:40.951Z,79.22
2023-02-11T23:14:11.952Z,63.40
2023-02-11T23:16:39.943Z,79.63
2023-02-11T23:19:09.951Z,72.75
2023-02-11T23:21:41.056Z,80.70
2023-02-11T23:24:11.915Z,71.68
2023-02-11T23:26:40.372Z,78.60
2023-02-11T23:29:08.857Z,70.50
2023-02-11T23:31:39.803Z,83.32
2023-02-11T23:34:08.518Z,84.78
2023-02-11T23:36:36.579Z,85.63
2023-02-11T23:39:15.301Z,75.15
2023-02-11T23:41:43.070Z,75.55
2023-02-11T23:44:11.761Z,75.57
2023-02-11T23:46:39.847Z,74.68
2023-02-11T23:49:07.652Z,77.20
2023-02-11T23:51:35.412Z,79.00
2023-02-11T23:54:03.390Z,81.82
2023-02-11T23:56:33.130Z,73.88
2023-02-11T23:59:00.957Z,74.53
